Al Noof — A7EC — position and weather

sailwx.info

Track history (hours):
 
Tides and Currents Weather Stations Pressure Air Temp Water Temp Dewpoint Dewpoint Depression Visibility Wind Speed Wind Dir Waves Ship Positions

Al Noof

Last reported at 2013-Aug-19 02:11 UTC. Time now 2014-Sep-21 06:10 UTC.
Position N 32°17' E 030°32'.
Warning: this ship's position is years out of date!

Length 276 m; draft 12.4 m.

Type: Ship (hazmat cat D). MMSI: 466174000.

Date/timePositionNaut miles runAvg speedWind from/ knotsBaromVisibWave heightAir tempDewpointWater temp
2013-Aug-19 02:11N 32°17' E 030°32'1116.0
2013-Aug-19 01:30N 32°22' E 030°20'1516.0
2013-Aug-19 00:34N 32°28' E 030°04'1615.9
2013-Aug-18 23:34N 32°34' E 029°46'1716.0
2013-Aug-18 22:31N 32°41' E 029°28'1914.2
2013-Aug-18 21:11N 32°50' E 029°09'21813.0
2013-Aug-18 04:28N 34°16' E 025°09'60115.0
2013-Aug-16 12:24N 39°29' E 014°27'7915.8
2013-Aug-16 07:24N 40°19' E 013°08'1315.6
2013-Aug-16 06:33N 40°28' E 012°55'1515.3
2013-Aug-16 05:33N 40°38' E 012°39'1615.7
2013-Aug-16 04:33N 40°48' E 012°24'1615.8
2013-Aug-16 03:33N 40°58' E 012°07'1616.0
2013-Aug-16 02:33N 41°08' E 011°51'1916.0
2013-Aug-16 01:24N 41°20' E 011°32'1416.1
2013-Aug-16 00:32N 41°29' E 011°18'6516.3
2013-Aug-15 20:33N 42°10' E 010°11'3615.5
2013-Aug-15 18:14N 42°42' E 009°47'1116.1
2013-Aug-15 17:33N 42°52' E 009°44'1615.9
2013-Aug-15 16:33N 43°08' E 009°41'1616.3
2013-Aug-15 15:34N 43°24' E 009°42'1515.2
2013-Aug-15 14:33N 43°39' E 009°35'1515.3
2013-Aug-15 13:33N 43°51' E 009°23'1414.4
2013-Aug-15 12:33N 44°03' E 009°12'1414.0
2013-Aug-15 11:33N 44°15' E 009°02'10 9.8
2013-Aug-15 10:34N 44°24' E 008°55'0 0.5
2013-Aug-15 09:32N 44°24' E 008°55'0 0.0
2013-Aug-15 08:23N 44°24' E 008°55'0 0.0
2013-Aug-15 07:29N 44°24' E 008°55'0 0.0
2013-Aug-15 06:32N 44°24' E 008°55'0 0.0
2013-Aug-15 05:29N 44°24' E 008°55'0 0.0
2013-Aug-15 04:29N 44°24' E 008°55'0 0.0
2013-Aug-15 03:32N 44°24' E 008°55'0 0.0
2013-Aug-15 02:29N 44°24' E 008°55'0 0.0
2013-Aug-15 01:32N 44°24' E 008°55'0 0.0
2013-Aug-15 00:32N 44°24' E 008°55'0 0.0
2013-Aug-14 23:29N 44°24' E 008°55'0 0.0
2013-Aug-14 22:29N 44°24' E 008°55'0 0.0
2013-Aug-14 21:32N 44°24' E 008°55'0 0.0
2013-Aug-14 20:29N 44°24' E 008°55'0 0.0
2013-Aug-14 19:32N 44°24' E 008°55'0 0.0
2013-Aug-14 18:29N 44°24' E 008°55'0 0.0
2013-Aug-14 17:17N 44°24' E 008°55'0 0.0
2013-Aug-14 16:29N 44°24' E 008°55'0 0.0
2013-Aug-14 15:32N 44°24' E 008°55'0 0.1
2013-Aug-14 14:33N 44°24' E 008°55'5 4.7
2013-Aug-14 13:33N 44°20' E 008°59'10 9.7
2013-Aug-14 12:33N 44°12' E 008°53'1413.8
2013-Aug-14 11:34N 44°01' E 008°41'1414.4
2013-Aug-14 10:33N 43°49' E 008°29'1414.3
2013-Aug-14 09:33N 43°41' E 008°13'4 3.9
2013-Aug-14 08:33N 43°42' E 008°08'9 9.2
2013-Aug-14 07:34N 43°45' E 008°20'1414.3
2013-Aug-14 06:33N 43°36' E 008°04'1514.9
2013-Aug-14 05:33N 43°28' E 007°47'1514.9
2013-Aug-14 04:34N 43°18' E 007°32'1515.2
2013-Aug-14 03:33N 43°10' E 007°14'1515.1
2013-Aug-14 02:33N 43°01' E 006°57'1514.9
2013-Aug-14 01:34N 42°51' E 006°42'2914.7
2013-Aug-13 23:34N 42°35' E 006°09'1514.8
2013-Aug-13 22:34N 42°26' E 005°53'1515.1
2013-Aug-13 21:33N 42°17' E 005°36'1514.7
2013-Aug-13 20:33N 42°09' E 005°20'1514.7
2013-Aug-13 19:34N 42°00' E 005°04'1515.0
2013-Aug-13 18:33N 41°52' E 004°47'1514.6
2013-Aug-13 17:34N 41°43' E 004°31'1414.0
2013-Aug-13 16:32N 41°35' E 004°15'1414.7
2013-Aug-13 15:33N 41°27' E 003°60'1514.7
2013-Aug-13 14:33N 41°18' E 003°44'1414.2
2013-Aug-13 13:34N 41°11' E 003°28'1514.5
2013-Aug-13 12:33N 41°02' E 003°12'1514.8
2013-Aug-13 11:33N 40°53' E 002°56'1515.0
2013-Aug-13 10:33N 40°45' E 002°40'1615.9
2013-Aug-13 09:34N 40°36' E 002°23'1716.6
2013-Aug-13 08:33N 40°26' E 002°05'1616.1
2013-Aug-13 07:33N 40°17' E 001°48'1616.2
2013-Aug-13 06:33N 40°07' E 001°31'1716.2
2013-Aug-13 05:31N 39°58' E 001°13'1516.0
2013-Aug-13 04:33N 39°49' E 000°57'1616.1
2013-Aug-13 03:33N 39°40' E 000°39'45 1.7
2013-Aug-12 00:33N 38°58' E 000°19'9 3.7
2013-Aug-11 22:14N 38°50' E 000°21'1014.2
2013-Aug-11 21:32N 38°41' E 000°28'3315.3
2013-Aug-11 19:22N 38°14' E 000°04'1715.2
2013-Aug-11 18:16N 37°60' W 000°08'1317.4
2013-Aug-11 17:31N 37°49' W 000°16'1515.3
2013-Aug-11 16:33N 37°37' W 000°28'1616.0
2013-Aug-11 15:33N 37°25' W 000°42'1616.0
2013-Aug-11 14:32N 37°14' W 000°57'8416.1
2013-Aug-11 09:18N 36°21' W 002°19'1417.8
2013-Aug-11 08:31N 36°20' W 002°36'1817.1
2013-Aug-11 07:29N 36°18' W 002°57'229 6.0
2013-Aug-09 17:33N 35°54' W 007°40'6515.7
2013-Aug-09 13:23N 35°54' W 009°01'6615.7
2013-Aug-09 09:08N 35°60' W 010°22'1415.5
2013-Aug-09 08:16N 36°03' W 010°39'1315.6
2013-Aug-09 07:26N 36°06' W 010°54'1415.6
2013-Aug-09 06:30N 36°10' W 011°12'1515.3
2013-Aug-09 05:33N 36°13' W 011°29'1714.5
2013-Aug-09 04:24N 36°16' W 011°50'1315.2
2013-Aug-09 03:32N 36°19' W 012°06'  
Track history (hours):
 
Tides and Currents Weather Stations Pressure Air Temp Water Temp Dewpoint Dewpoint Depression Visibility Wind Speed Wind Dir Waves Ship Positions

Al Noof

Last reported at 2013-Aug-19 02:11 UTC. Time now 2014-Sep-21 06:10 UTC.
Position N 32°17' E 030°32'.
Warning: this ship's position is years out of date!

Length 276 m; draft 12.4 m.

Type: Ship (hazmat cat D). MMSI: 466174000.

Date/timePositionNaut miles runAvg speedWind from/ knotsBaromVisibWave heightAir tempDewpointWater temp
2013-Aug-19 02:11N 32°17' E 030°32'1116.0
2013-Aug-19 01:30N 32°22' E 030°20'1516.0
2013-Aug-19 00:34N 32°28' E 030°04'1615.9
2013-Aug-18 23:34N 32°34' E 029°46'1716.0
2013-Aug-18 22:31N 32°41' E 029°28'1914.2
2013-Aug-18 21:11N 32°50' E 029°09'21813.0
2013-Aug-18 04:28N 34°16' E 025°09'60115.0
2013-Aug-16 12:24N 39°29' E 014°27'7915.8
2013-Aug-16 07:24N 40°19' E 013°08'1315.6
2013-Aug-16 06:33N 40°28' E 012°55'1515.3
2013-Aug-16 05:33N 40°38' E 012°39'1615.7
2013-Aug-16 04:33N 40°48' E 012°24'1615.8
2013-Aug-16 03:33N 40°58' E 012°07'1616.0
2013-Aug-16 02:33N 41°08' E 011°51'1916.0
2013-Aug-16 01:24N 41°20' E 011°32'1416.1
2013-Aug-16 00:32N 41°29' E 011°18'6516.3
2013-Aug-15 20:33N 42°10' E 010°11'3615.5
2013-Aug-15 18:14N 42°42' E 009°47'1116.1
2013-Aug-15 17:33N 42°52' E 009°44'1615.9
2013-Aug-15 16:33N 43°08' E 009°41'1616.3
2013-Aug-15 15:34N 43°24' E 009°42'1515.2
2013-Aug-15 14:33N 43°39' E 009°35'1515.3
2013-Aug-15 13:33N 43°51' E 009°23'1414.4
2013-Aug-15 12:33N 44°03' E 009°12'1414.0
2013-Aug-15 11:33N 44°15' E 009°02'10 9.8
2013-Aug-15 10:34N 44°24' E 008°55'0 0.5
2013-Aug-15 09:32N 44°24' E 008°55'0 0.0
2013-Aug-15 08:23N 44°24' E 008°55'0 0.0
2013-Aug-15 07:29N 44°24' E 008°55'0 0.0
2013-Aug-15 06:32N 44°24' E 008°55'0 0.0
2013-Aug-15 05:29N 44°24' E 008°55'0 0.0
2013-Aug-15 04:29N 44°24' E 008°55'0 0.0
2013-Aug-15 03:32N 44°24' E 008°55'0 0.0
2013-Aug-15 02:29N 44°24' E 008°55'0 0.0
2013-Aug-15 01:32N 44°24' E 008°55'0 0.0
2013-Aug-15 00:32N 44°24' E 008°55'0 0.0
2013-Aug-14 23:29N 44°24' E 008°55'0 0.0
2013-Aug-14 22:29N 44°24' E 008°55'0 0.0
2013-Aug-14 21:32N 44°24' E 008°55'0 0.0
2013-Aug-14 20:29N 44°24' E 008°55'0 0.0
2013-Aug-14 19:32N 44°24' E 008°55'0 0.0
2013-Aug-14 18:29N 44°24' E 008°55'0 0.0
2013-Aug-14 17:17N 44°24' E 008°55'0 0.0
2013-Aug-14 16:29N 44°24' E 008°55'0 0.0
2013-Aug-14 15:32N 44°24' E 008°55'0 0.1
2013-Aug-14 14:33N 44°24' E 008°55'5 4.7
2013-Aug-14 13:33N 44°20' E 008°59'10 9.7
2013-Aug-14 12:33N 44°12' E 008°53'1413.8
2013-Aug-14 11:34N 44°01' E 008°41'1414.4
2013-Aug-14 10:33N 43°49' E 008°29'1414.3
2013-Aug-14 09:33N 43°41' E 008°13'4 3.9
2013-Aug-14 08:33N 43°42' E 008°08'9 9.2
2013-Aug-14 07:34N 43°45' E 008°20'1414.3
2013-Aug-14 06:33N 43°36' E 008°04'1514.9
2013-Aug-14 05:33N 43°28' E 007°47'1514.9
2013-Aug-14 04:34N 43°18' E 007°32'1515.2
2013-Aug-14 03:33N 43°10' E 007°14'1515.1
2013-Aug-14 02:33N 43°01' E 006°57'1514.9
2013-Aug-14 01:34N 42°51' E 006°42'2914.7
2013-Aug-13 23:34N 42°35' E 006°09'1514.8
2013-Aug-13 22:34N 42°26' E 005°53'1515.1
2013-Aug-13 21:33N 42°17' E 005°36'1514.7
2013-Aug-13 20:33N 42°09' E 005°20'1514.7
2013-Aug-13 19:34N 42°00' E 005°04'1515.0
2013-Aug-13 18:33N 41°52' E 004°47'1514.6
2013-Aug-13 17:34N 41°43' E 004°31'1414.0
2013-Aug-13 16:32N 41°35' E 004°15'1414.7
2013-Aug-13 15:33N 41°27' E 003°60'1514.7
2013-Aug-13 14:33N 41°18' E 003°44'1414.2
2013-Aug-13 13:34N 41°11' E 003°28'1514.5
2013-Aug-13 12:33N 41°02' E 003°12'1514.8
2013-Aug-13 11:33N 40°53' E 002°56'1515.0
2013-Aug-13 10:33N 40°45' E 002°40'1615.9
2013-Aug-13 09:34N 40°36' E 002°23'1716.6
2013-Aug-13 08:33N 40°26' E 002°05'1616.1
2013-Aug-13 07:33N 40°17' E 001°48'1616.2
2013-Aug-13 06:33N 40°07' E 001°31'1716.2
2013-Aug-13 05:31N 39°58' E 001°13'1516.0
2013-Aug-13 04:33N 39°49' E 000°57'1616.1
2013-Aug-13 03:33N 39°40' E 000°39'45 1.7
2013-Aug-12 00:33N 38°58' E 000°19'9 3.7
2013-Aug-11 22:14N 38°50' E 000°21'1014.2
2013-Aug-11 21:32N 38°41' E 000°28'3315.3
2013-Aug-11 19:22N 38°14' E 000°04'1715.2
2013-Aug-11 18:16N 37°60' W 000°08'1317.4
2013-Aug-11 17:31N 37°49' W 000°16'1515.3
2013-Aug-11 16:33N 37°37' W 000°28'1616.0
2013-Aug-11 15:33N 37°25' W 000°42'1616.0
2013-Aug-11 14:32N 37°14' W 000°57'8416.1
2013-Aug-11 09:18N 36°21' W 002°19'1417.8
2013-Aug-11 08:31N 36°20' W 002°36'1817.1
2013-Aug-11 07:29N 36°18' W 002°57'229 6.0
2013-Aug-09 17:33N 35°54' W 007°40'6515.7
2013-Aug-09 13:23N 35°54' W 009°01'6615.7
2013-Aug-09 09:08N 35°60' W 010°22'1415.5
2013-Aug-09 08:16N 36°03' W 010°39'1315.6
2013-Aug-09 07:26N 36°06' W 010°54'1415.6
2013-Aug-09 06:30N 36°10' W 011°12'1515.3
2013-Aug-09 05:33N 36°13' W 011°29'1714.5
2013-Aug-09 04:24N 36°16' W 011°50'1315.2
2013-Aug-09 03:32N 36°19' W 012°06'  

Dump ship's entire track history